LKNA

Náměšť Air Base Airport

Náměšť, Czech Republic
TAF LKNA 201100Z 2012/2112 01006KT CAVOK BECMG 2014/2016 12006KT
Issued Valid From Valid To
Jul-20 @ 11:00 UTC
(4 hours ago)
Jul-20 @ 12:00 UTC
(3 hours ago)
Jul-21 @ 12:00 UTC
(in 21 hours)
Expired Click to View Jul-20 @ 12:00 to Jul-20 @ 14:00
TAF LKNA 201100Z 2012/2112 01006KT CAVOK
Wind Visibility Clouds Conditions
10° at 6 knots 10,000+ meters
  • No significant clouds
Becoming Jul-20 @ 14:00 to Jul-21 @ 12:00
BECMG 2014/2016 12006KT
Wind Visibility Clouds Conditions
120° at 6 knots 10,000+ meters
  • No significant clouds
TAF LKNA 201100Z 2012/2112 01006KT CAVOK BECMG 2014/2016 12006KT
Issued Jul-20 @ 11:00 UTC
(4 hours ago)
Valid From Jul-20 @ 12:00 UTC
(3 hours ago)
Valid To Jul-21 @ 12:00 UTC
(in 21 hours)
Jul-20 @ 12:00 - Jul-20 @ 14:00
Wind Visibility
10° at 6 knots 10,000+ meters
Clouds
  • No significant clouds
Conditions
Becoming Jul-20 @ 14:00 - Jul-21 @ 12:00
Wind Visibility
120° at 6 knots 10,000+ meters
Clouds
  • No significant clouds
Conditions